Time;durP1;ratioP1;P1;durP2;ratioP2;P2;SDS_P1;SDS_P2;PMS_P1;PMS_P2;Temp;Humidity;BMP_temperature;BMP_pressure;BME280_temperature;BME280_humidity;BME280_pressure;Samples;Min_cycle;Max_cycle;Signal;HPM_P1;HPM_P2
2021/07/14 00:00:09;;;;;;;17.38;14.35;;;;;;;25.18;52.62;99880.47;5087826;28;20028;-24
2021/07/14 00:02:34;;;;;;;18.33;14.00;;;;;;;24.81;53.53;99868.25;5088031;28;20028;-24
2021/07/14 00:05:00;;;;;;;17.48;15.65;;;;;;;25.14;52.39;99868.56;5087949;28;20093;-24
2021/07/14 00:07:25;;;;;;;21.52;17.45;;;;;;;25.30;52.00;99879.06;5087809;28;20032;-25
2021/07/14 00:09:51;;;;;;;29.95;22.80;;;;;;;24.66;53.69;99880.38;5087953;28;20470;-24
2021/07/14 00:12:17;;;;;;;30.25;19.98;;;;;;;24.73;53.42;99879.94;5087830;28;20082;-24
2021/07/14 00:22:29;;;;;;;27.10;20.08;;;;;;;24.71;53.95;99891.16;5088203;28;20042;-24
2021/07/14 00:24:55;;;;;;;26.17;19.80;;;;;;;24.44;55.09;99884.00;5087407;28;20628;-24
2021/07/14 00:27:23;;;;;;;20.55;17.75;;;;;;;24.69;54.49;99885.22;5069073;28;20107;-24
2021/07/14 00:29:59;;;;;;;21.65;18.30;;;;;;;23.94;56.92;99887.81;5087759;28;20032;-24
2021/07/14 00:32:25;;;;;;;21.20;17.17;;;;;;;23.51;57.80;99868.47;5069706;28;20051;-24
2021/07/14 00:34:51;;;;;;;21.65;17.85;;;;;;;23.64;57.32;99873.06;5087898;28;20828;-24
2021/07/14 00:37:20;;;;;;;21.25;16.33;;;;;;;23.98;55.89;99883.34;5087884;28;20097;-24
2021/07/14 00:39:47;;;;;;;22.92;16.40;;;;;;;24.25;55.11;99878.81;5087372;28;20107;-24
2021/07/14 00:42:13;;;;;;;18.88;16.80;;;;;;;23.75;57.44;99889.91;5087808;28;20031;-24
2021/07/14 00:44:38;;;;;;;22.80;16.80;;;;;;;23.82;56.47;99876.69;5069692;28;20043;-24
2021/07/14 00:47:07;;;;;;;18.58;16.65;;;;;;;23.41;58.48;99885.84;5087461;28;20036;-24
2021/07/14 00:49:33;;;;;;;20.85;16.27;;;;;;;22.81;59.14;99863.25;5069703;28;20028;-24
2021/07/14 00:51:59;;;;;;;25.77;18.25;;;;;;;23.13;58.40;99896.84;5087447;28;20790;-24
2021/07/14 00:54:24;;;;;;;31.63;19.75;;;;;;;23.52;56.79;99881.78;5069002;28;20105;-24
2021/07/14 00:56:50;;;;;;;48.90;31.90;;;;;;;23.77;56.92;99890.44;5087175;28;20028;-24
2021/07/14 00:59:15;;;;;;;39.35;25.88;;;;;;;23.31;58.28;99889.59;5087246;28;20028;-24
2021/07/14 01:01:43;;;;;;;43.53;28.27;;;;;;;23.53;57.67;99883.38;5069062;28;20028;-22
2021/07/14 01:04:35;;;;;;;55.03;37.10;;;;;;;23.87;56.96;99892.91;5087219;28;20024;-22
2021/07/14 01:07:16;;;;;;;53.60;34.08;;;;;;;24.07;56.52;99897.03;5070417;28;20039;-22
2021/07/14 01:09:48;;;;;;;26.52;19.80;;;;;;;24.18;55.83;99900.25;5087025;28;20036;-22
2021/07/14 01:12:36;;;;;;;19.50;16.92;;;;;;;24.30;55.33;99897.75;5087228;28;20035;-22
2021/07/14 01:15:08;;;;;;;22.08;17.48;;;;;;;23.53;57.85;99893.47;5026912;28;20052;-22
2021/07/14 01:17:37;;;;;;;28.67;20.40;;;;;;;22.80;59.65;99891.56;5067059;28;20127;-22
2021/07/14 01:20:21;;;;;;;29.27;20.23;;;;;;;22.65;60.64;99908.16;5049249;28;20032;-22
2021/07/14 01:23:06;;;;;;;29.02;22.02;;;;;;;22.24;61.30;99898.09;5049052;28;20048;-22
2021/07/14 01:26:09;;;;;;;29.88;20.35;;;;;;;22.66;60.56;99909.78;5044846;28;20036;-22
2021/07/14 01:28:36;;;;;;;23.48;18.95;;;;;;;22.50;60.87;99909.28;5086807;28;20020;-22
2021/07/14 01:31:02;;;;;;;20.58;17.67;;;;;;;23.10;58.96;99897.44;5086726;28;20480;-22
2021/07/14 01:33:33;;;;;;;23.83;19.58;;;;;;;22.40;61.19;99896.69;5068882;28;20030;-22
2021/07/14 01:36:01;;;;;;;25.30;20.08;;;;;;;22.21;61.93;99902.22;5069615;28;20040;-22
2021/07/14 01:38:27;;;;;;;24.75;18.48;;;;;;;21.86;62.40;99898.22;5052569;28;20028;-22
2021/07/14 01:40:54;;;;;;;25.08;17.70;;;;;;;21.50;63.52;99882.53;5068478;28;20039;-22
2021/07/14 01:43:19;;;;;;;21.50;16.27;;;;;;;21.32;65.05;99886.06;5068561;28;20031;-22
2021/07/14 01:45:45;;;;;;;17.45;15.60;;;;;;;21.14;65.78;99888.47;5052175;28;20043;-22
2021/07/14 01:48:10;;;;;;;18.60;16.23;;;;;;;21.22;65.54;99904.06;5051943;28;20491;-22
2021/07/14 01:50:36;;;;;;;18.98;16.92;;;;;;;21.27;65.21;99912.16;5069174;28;20438;-22
2021/07/14 01:53:01;;;;;;;23.88;19.13;;;;;;;21.72;64.04;99892.75;5072384;28;20088;-21
2021/07/14 01:55:27;;;;;;;22.38;18.38;;;;;;;21.90;63.45;99877.50;5055943;28;20028;-22
2021/07/14 01:57:53;;;;;;;23.38;18.48;;;;;;;22.39;61.59;99883.41;5055782;28;20032;-22
2021/07/14 02:00:19;;;;;;;21.92;17.83;;;;;;;21.92;63.08;99875.28;5055857;28;20126;-22
2021/07/14 02:05:41;;;;;;;25.77;17.77;;;;;;;21.20;65.28;99898.13;5017825;28;20421;-22
2021/07/14 02:08:07;;;;;;;22.10;16.33;;;;;;;20.95;65.54;99876.84;5056227;28;20486;-22
2021/07/14 02:10:32;;;;;;;22.88;16.77;;;;;;;20.83;66.42;99883.47;5072129;28;20093;-22
2021/07/14 02:12:58;;;;;;;20.80;17.40;;;;;;;20.90;66.30;99888.53;5071785;28;20059;-22
2021/07/14 02:15:25;;;;;;;20.85;17.33;;;;;;;20.90;66.36;99890.44;5090118;28;20513;-22
2021/07/14 02:17:57;;;;;;;22.33;17.83;;;;;;;20.92;66.16;99880.13;5090245;28;20028;-22
2021/07/14 02:20:23;;;;;;;23.77;17.70;;;;;;;21.10;66.06;99913.75;5072186;28;20032;-22
2021/07/14 02:22:49;;;;;;;20.48;17.75;;;;;;;21.39;65.24;99894.59;5071949;28;20027;-22
2021/07/14 02:25:14;;;;;;;27.55;19.08;;;;;;;21.11;66.43;99899.91;5090139;28;20403;-22
2021/07/14 02:27:40;;;;;;;27.90;18.05;;;;;;;21.20;66.00;99914.41;5071882;28;20031;-22
2021/07/14 02:30:16;;;;;;;25.95;17.90;;;;;;;21.27;66.06;99906.72;5071729;28;20023;-22
2021/07/14 02:32:42;;;;;;;27.38;16.85;;;;;;;21.31;65.60;99898.00;5089881;28;20034;-22
2021/07/14 02:35:09;;;;;;;31.05;17.95;;;;;;;21.51;64.55;99903.13;5089613;28;20032;-22
2021/07/14 02:37:49;;;;;;;26.50;17.83;;;;;;;21.60;64.45;99900.56;5055035;28;20115;-22
2021/07/14 02:40:23;;;;;;;23.83;18.55;;;;;;;21.57;64.16;99895.72;5056746;28;20035;-22
2021/07/14 02:42:49;;;;;;;23.73;17.60;;;;;;;21.75;63.07;99896.78;5055494;28;20039;-22
2021/07/14 02:45:14;;;;;;;27.98;19.17;;;;;;;21.51;64.08;99913.97;5071586;28;20115;-22
2021/07/14 02:47:41;;;;;;;27.65;18.55;;;;;;;21.75;63.00;99913.06;5089512;28;20036;-22
2021/07/14 02:50:15;;;;;;;22.98;18.00;;;;;;;21.81;62.82;99918.09;5071333;28;20024;-22
2021/07/14 02:52:40;;;;;;;22.40;18.23;;;;;;;21.67;63.49;99907.19;5089033;28;20024;-22
2021/07/14 02:55:06;;;;;;;25.10;17.83;;;;;;;21.23;64.65;99899.47;5054379;28;20075;-22
2021/07/14 02:57:33;;;;;;;27.25;19.10;;;;;;;21.76;63.05;99903.81;5089450;28;20143;-22
2021/07/14 02:59:58;;;;;;;29.48;18.63;;;;;;;21.66;63.79;99915.66;5055220;28;20039;-22
2021/07/14 03:02:24;;;;;;;25.30;19.08;;;;;;;21.67;63.44;99915.34;5054345;28;20036;-22
2021/07/14 03:04:51;;;;;;;27.88;19.40;;;;;;;21.46;63.39;99903.22;5054386;28;20476;-21
2021/07/14 03:07:18;;;;;;;25.67;18.27;;;;;;;21.39;64.21;99905.47;5071459;28;20024;-22
2021/07/14 03:09:44;;;;;;;27.65;18.60;;;;;;;21.40;63.95;99896.22;5071395;28;20035;-22
2021/07/14 03:12:15;;;;;;;23.63;17.95;;;;;;;21.27;64.96;99914.06;5071137;28;20032;-22
2021/07/14 03:14:44;;;;;;;21.65;18.33;;;;;;;21.30;65.11;99915.38;5088237;28;20063;-22
2021/07/14 03:17:10;;;;;;;24.33;18.88;;;;;;;21.77;63.64;99916.28;5070970;28;20024;-22
2021/07/14 03:19:36;;;;;;;24.38;19.50;;;;;;;22.19;61.96;99919.88;5089055;28;20613;-22
2021/07/14 03:22:01;;;;;;;22.77;17.58;;;;;;;21.91;63.25;99911.69;5054144;28;20032;-22
2021/07/14 03:24:27;;;;;;;21.90;18.48;;;;;;;21.65;63.95;99914.03;5089301;28;20020;-22
2021/07/14 03:26:52;;;;;;;25.85;19.35;;;;;;;21.89;63.53;99916.63;5070442;28;20020;-22
2021/07/14 03:29:18;;;;;;;22.92;18.08;;;;;;;22.90;62.44;99922.34;5054091;28;20035;-22
2021/07/14 03:31:44;;;;;;;29.45;18.65;;;;;;;23.35;59.89;99925.97;5054193;28;20035;-22
2021/07/14 03:34:10;;;;;;;36.10;21.38;;;;;;;23.65;58.00;99935.31;5070659;28;20035;-22
2021/07/14 03:36:35;;;;;;;35.25;21.83;;;;;;;23.87;57.62;99939.19;5070452;28;20024;-22
2021/07/14 03:39:01;;;;;;;28.40;19.67;;;;;;;24.18;56.35;99943.84;5070238;28;20036;-22
2021/07/14 03:41:26;;;;;;;35.08;22.45;;;;;;;24.25;55.65;99936.03;5053975;28;20032;-22
2021/07/14 03:43:52;;;;;;;23.00;18.33;;;;;;;23.37;57.58;99937.34;5070613;28;20039;-22
2021/07/14 03:46:17;;;;;;;18.85;16.85;;;;;;;23.11;58.71;99953.47;5070686;28;20039;-22
2021/07/14 03:48:43;;;;;;;18.13;16.20;;;;;;;22.24;61.85;99952.44;5070294;28;20040;-22
2021/07/14 03:51:08;;;;;;;23.50;17.90;;;;;;;22.14;62.31;99958.00;5069966;28;20028;-22
2021/07/14 03:53:34;;;;;;;20.05;17.92;;;;;;;22.15;62.45;99956.91;5053511;28;20473;-22
2021/07/14 03:56:00;;;;;;;22.63;19.42;;;;;;;22.46;61.44;99959.91;5053569;28;20446;-22
2021/07/14 03:58:25;;;;;;;20.73;18.52;;;;;;;23.05;59.59;99960.91;5070341;28;20039;-22
2021/07/14 04:00:52;;;;;;;21.13;18.75;;;;;;;23.22;59.14;99965.72;5088066;28;20040;-22
2021/07/14 04:03:24;;;;;;;21.90;19.65;;;;;;;23.33;59.18;99962.75;5088286;28;20057;-22
2021/07/14 04:06:03;;;;;;;21.88;19.50;;;;;;;23.48;58.62;99962.44;5088118;28;20035;-22
2021/07/14 04:08:41;;;;;;;23.45;19.02;;;;;;;23.92;57.66;99960.03;5070105;28;20032;-22
2021/07/14 04:11:07;;;;;;;20.13;17.83;;;;;;;24.10;56.18;99966.41;5053817;28;20194;-22
2021/07/14 04:13:33;;;;;;;24.50;19.35;;;;;;;24.19;56.52;99980.88;5069330;28;20032;-22
2021/07/14 04:15:58;;;;;;;27.60;20.67;;;;;;;24.34;55.79;99971.50;5087963;28;20093;-22
2021/07/14 04:18:24;;;;;;;36.50;21.80;;;;;;;24.20;56.19;99971.59;5087820;28;20032;-22
2021/07/14 04:20:49;;;;;;;29.10;21.35;;;;;;;24.60;55.99;99979.81;5087672;28;20032;-22
2021/07/14 04:23:15;;;;;;;29.67;18.45;;;;;;;24.76;54.80;99972.81;5069568;28;20532;-22
2021/07/14 04:25:40;;;;;;;24.25;17.77;;;;;;;24.72;55.24;99982.75;5087900;28;20028;-22
2021/07/14 04:28:06;;;;;;;25.63;19.58;;;;;;;24.47;56.40;99967.88;5053012;28;20024;-22
2021/07/14 04:30:32;;;;;;;27.73;19.27;;;;;;;23.69;58.90;99986.44;5087591;28;20035;-22
2021/07/14 04:32:58;;;;;;;23.25;19.77;;;;;;;23.16;61.06;99983.25;5087250;28;20115;-22
2021/07/14 04:35:23;;;;;;;23.17;19.05;;;;;;;22.96;62.00;99986.38;5087820;28;20032;-22
2021/07/14 04:37:50;;;;;;;22.10;19.75;;;;;;;23.00;62.28;99984.66;5069322;28;20032;-22
2021/07/14 04:40:15;;;;;;;21.05;18.00;;;;;;;23.63;60.06;99977.59;5087592;28;20080;-22
2021/07/14 04:42:41;;;;;;;67.00;56.40;;;;;;;24.11;58.81;99989.81;5069303;28;20035;-22
2021/07/14 04:45:06;;;;;;;40.15;30.75;;;;;;;24.24;58.44;99995.16;5087863;28;20490;-22
2021/07/14 04:47:32;;;;;;;26.20;22.58;;;;;;;24.45;57.10;100000.88;5087731;28;20039;-22
2021/07/14 04:49:58;;;;;;;23.50;19.92;;;;;;;24.78;56.44;100006.03;5087696;28;20035;-22
2021/07/14 04:52:23;;;;;;;22.23;19.95;;;;;;;24.98;56.04;100009.31;5087246;28;20043;-22
2021/07/14 04:54:49;;;;;;;22.40;20.00;;;;;;;25.13;54.90;100011.59;5086943;28;20113;-22
2021/07/14 04:57:14;;;;;;;25.40;20.48;;;;;;;25.29;55.05;100005.72;5087960;28;20032;-22
2021/07/14 04:59:40;;;;;;;21.77;19.35;;;;;;;25.33;54.67;99990.31;5087564;28;20407;-22
2021/07/14 05:02:06;;;;;;;24.35;21.00;;;;;;;25.45;56.10;99999.47;5087275;28;20032;-22
2021/07/14 05:04:32;;;;;;;23.02;20.60;;;;;;;25.18;56.71;99997.78;5087335;28;20028;-23
2021/07/14 05:06:58;;;;;;;22.60;18.45;;;;;;;25.14;55.28;99980.44;5087244;28;20077;-22
2021/07/14 05:09:23;;;;;;;22.67;20.45;;;;;;;25.32;56.22;100005.09;5087393;28;20035;-22
2021/07/14 05:11:49;;;;;;;21.38;19.10;;;;;;;25.46;55.33;99998.34;5087152;28;20028;-22
2021/07/14 05:14:14;;;;;;;20.35;18.25;;;;;;;25.51;55.92;100008.31;5086105;28;20028;-22
2021/07/14 05:16:40;;;;;;;20.20;18.10;;;;;;;25.61;54.37;100007.97;5086539;28;20028;-22
2021/07/14 05:19:06;;;;;;;20.70;18.48;;;;;;;25.31;53.90;99998.00;5087165;28;20032;-22
2021/07/14 05:21:31;;;;;;;19.63;17.52;;;;;;;25.37;53.19;99997.53;5087171;28;20036;-21
2021/07/14 05:23:57;;;;;;;20.15;18.02;;;;;;;25.18;54.11;99994.28;5087390;28;20804;-22
2021/07/14 05:26:23;;;;;;;20.55;18.42;;;;;;;25.04;53.97;100002.59;5089750;28;20028;-22
2021/07/14 05:28:48;;;;;;;19.23;17.15;;;;;;;24.85;53.37;100009.09;5090690;28;20408;-22
2021/07/14 05:31:14;;;;;;;22.08;17.55;;;;;;;24.81;53.81;100008.13;5091036;28;20032;-22
2021/07/14 05:33:39;;;;;;;18.80;16.85;;;;;;;24.99;52.94;100009.00;5090575;28;20400;-22
2021/07/14 05:36:05;;;;;;;20.38;16.33;;;;;;;25.04;53.14;100013.50;5091028;28;20028;-22
2021/07/14 05:38:30;;;;;;;18.15;16.02;;;;;;;25.09;53.18;100007.91;5089902;28;20486;-22
2021/07/14 05:40:57;;;;;;;18.25;16.33;;;;;;;25.57;52.00;100009.75;5089829;28;20020;-22
2021/07/14 05:43:23;;;;;;;19.80;17.25;;;;;;;25.55;51.19;100012.00;5090995;28;20032;-22
2021/07/14 05:45:49;;;;;;;17.67;15.88;;;;;;;25.62;51.63;100012.34;5090880;28;20028;-22
2021/07/14 05:48:14;;;;;;;18.95;16.95;;;;;;;25.15;52.53;100005.81;5090848;28;20411;-22
2021/07/14 05:50:40;;;;;;;23.27;16.73;;;;;;;25.25;52.80;100021.91;5090686;28;20039;-22
2021/07/14 05:53:05;;;;;;;19.00;16.05;;;;;;;25.59;52.16;100021.16;5072455;28;20089;-22
2021/07/14 05:55:31;;;;;;;19.45;16.77;;;;;;;25.83;51.86;100025.34;5090697;28;20118;-22
2021/07/14 05:57:57;;;;;;;22.48;17.75;;;;;;;26.04;51.17;100028.25;5090577;28;20031;-22
2021/07/14 06:00:22;;;;;;;20.25;18.13;;;;;;;25.84;51.18;100032.41;5090472;28;20028;-22
2021/07/14 06:02:48;;;;;;;24.63;17.35;;;;;;;25.73;50.84;100031.13;5072543;28;20024;-22
2021/07/14 06:05:13;;;;;;;22.50;17.85;;;;;;;25.77;50.57;100027.44;5090978;28;20819;-22
2021/07/14 06:07:39;;;;;;;23.40;17.13;;;;;;;26.02;49.91;100038.69;5090492;28;20047;-22
2021/07/14 06:10:06;;;;;;;18.77;16.60;;;;;;;26.05;50.31;100038.84;5090490;28;20043;-22
2021/07/14 06:12:31;;;;;;;19.05;16.88;;;;;;;26.29;48.96;100042.19;5055551;28;20024;-22
2021/07/14 06:14:57;;;;;;;21.38;16.40;;;;;;;26.43;47.79;100035.38;5089995;28;20494;-22
2021/07/14 06:17:22;;;;;;;17.67;15.63;;;;;;;26.39;48.35;100045.38;5090190;28;20034;-22
2021/07/14 06:19:48;;;;;;;18.58;16.67;;;;;;;26.16;49.38;100043.97;5090308;28;20038;-22
2021/07/14 06:22:13;;;;;;;19.38;16.13;;;;;;;26.41;48.80;100029.44;5090289;28;20036;-22
2021/07/14 06:24:39;;;;;;;20.75;17.25;;;;;;;26.43;48.81;100020.91;5090049;28;20028;-22
2021/07/14 06:27:05;;;;;;;19.25;16.48;;;;;;;26.77;49.86;100021.97;5089719;28;20122;-22
2021/07/14 06:29:31;;;;;;;19.90;16.90;;;;;;;26.93;48.22;100027.66;5090014;28;20115;-22
2021/07/14 06:31:56;;;;;;;19.20;16.80;;;;;;;26.79;48.01;100027.91;5090184;28;20115;-22
2021/07/14 06:34:22;;;;;;;19.70;16.77;;;;;;;27.16;47.23;100009.81;5090162;28;20035;-22
2021/07/14 06:36:47;;;;;;;19.35;16.63;;;;;;;27.52;47.67;100026.84;5089067;28;20101;-22
2021/07/14 06:39:13;;;;;;;17.85;16.02;;;;;;;27.54;46.81;100025.34;5089473;28;20393;-22
2021/07/14 06:41:39;;;;;;;22.10;15.90;;;;;;;27.74;45.33;100017.47;5090494;28;20942;-22
2021/07/14 06:44:05;;;;;;;18.45;15.55;;;;;;;27.91;45.20;100022.03;5089864;28;20062;-22
2021/07/14 06:46:31;;;;;;;18.23;16.00;;;;;;;27.55;45.90;100012.47;5089816;28;20090;-22
2021/07/14 06:48:57;;;;;;;18.27;14.93;;;;;;;27.61;46.50;99992.75;5089377;28;20715;-22
2021/07/14 06:51:22;;;;;;;17.40;15.63;;;;;;;27.60;45.98;100007.63;5089547;28;20075;-22
2021/07/14 06:53:48;;;;;;;19.77;15.00;;;;;;;27.98;45.70;99994.88;5089156;28;20057;-22
2021/07/14 06:56:13;;;;;;;17.50;15.70;;;;;;;28.03;44.93;100002.88;5089656;28;20032;-22
2021/07/14 06:58:40;;;;;;;17.38;14.75;;;;;;;28.59;45.07;100008.75;5089401;28;20063;-22
2021/07/14 07:01:09;;;;;;;16.77;14.98;;;;;;;28.45;44.33;100008.25;5089364;28;20027;-22
2021/07/14 07:03:34;;;;;;;17.23;14.55;;;;;;;28.60;44.95;100015.03;5071259;28;20151;-22
2021/07/14 07:06:00;;;;;;;16.52;13.70;;;;;;;28.63;43.30;100009.66;5089488;28;20376;-22
2021/07/14 07:08:26;;;;;;;17.00;13.18;;;;;;;28.62;43.55;100002.56;5089277;28;20027;-22
2021/07/14 07:10:51;;;;;;;15.00;13.48;;;;;;;28.72;43.06;100020.53;5088835;28;20028;-22
2021/07/14 07:13:18;;;;;;;15.70;14.00;;;;;;;28.45;42.93;100009.03;5088954;28;20249;-22
2021/07/14 07:15:44;;;;;;;16.70;13.77;;;;;;;28.62;42.74;100007.25;5089194;28;20032;-22
2021/07/14 07:18:10;;;;;;;15.55;13.05;;;;;;;28.84;41.83;100008.75;5089135;28;20028;-22
2021/07/14 07:20:35;;;;;;;15.48;13.93;;;;;;;28.89;44.83;100015.94;5089349;28;20097;-22
2021/07/14 07:23:01;;;;;;;67.57;16.65;;;;;;;28.93;44.45;100016.88;5089220;28;20024;-22
2021/07/14 07:25:26;;;;;;;14.98;13.30;;;;;;;28.84;43.44;100008.75;5089140;28;20392;-22
2021/07/14 07:27:52;;;;;;;17.48;13.02;;;;;;;28.84;44.31;100009.53;5089091;28;20043;-22
2021/07/14 07:30:18;;;;;;;18.17;13.85;;;;;;;29.17;42.85;99989.41;5071292;28;20073;-22
2021/07/14 07:32:44;;;;;;;14.88;13.20;;;;;;;29.54;43.68;100013.25;5088927;28;20421;-23
2021/07/14 07:35:10;;;;;;;16.10;13.07;;;;;;;29.42;42.78;100012.16;5088929;28;20457;-22
2021/07/14 07:37:36;;;;;;;15.18;13.52;;;;;;;29.40;43.68;99999.88;5088765;28;20119;-22
2021/07/14 07:40:01;;;;;;;14.70;11.75;;;;;;;29.57;42.27;100001.56;5088935;28;20032;-22
2021/07/14 07:42:27;;;;;;;13.80;12.40;;;;;;;29.37;41.85;99986.84;5088668;28;20031;-22
2021/07/14 07:44:52;;;;;;;19.35;12.93;;;;;;;29.54;44.23;100003.03;5088661;28;20062;-22
2021/07/14 07:47:18;;;;;;;17.27;12.95;;;;;;;29.56;41.83;99998.00;5088828;28;20054;-22
2021/07/14 07:49:45;;;;;;;15.80;12.85;;;;;;;29.44;41.89;99982.38;5088448;28;20059;-23
2021/07/14 07:52:11;;;;;;;;;;;;;;;29.82;41.38;99992.09;5088801;28;20036;-22
2021/07/14 07:54:37;;;;;;;14.45;12.95;;;;;;;29.93;41.19;100000.63;5088410;28;20356;-22
2021/07/14 07:57:02;;;;;;;17.25;12.80;;;;;;;30.05;41.55;99986.03;5088240;28;20487;-22
2021/07/14 07:59:28;;;;;;;17.98;12.45;;;;;;;30.20;40.16;99992.72;5088327;28;20032;-22
2021/07/14 08:01:53;;;;;;;18.70;13.10;;;;;;;30.15;41.59;99970.97;5088484;28;20020;-22
2021/07/14 08:04:19;;;;;;;15.48;12.95;;;;;;;30.36;40.10;99987.22;5088580;28;20043;-22
2021/07/14 08:06:44;;;;;;;13.73;12.32;;;;;;;30.58;41.11;99983.84;5088038;28;20407;-22
2021/07/14 08:09:10;;;;;;;15.77;12.68;;;;;;;31.08;39.73;99995.28;5070058;28;20146;-22
2021/07/14 08:11:35;;;;;;;13.98;12.45;;;;;;;31.21;38.58;99987.69;5088533;28;20036;-22
2021/07/14 08:14:01;;;;;;;13.05;11.82;;;;;;;30.95;38.83;99980.81;5088275;28;20786;-22
2021/07/14 08:16:27;;;;;;;13.35;12.00;;;;;;;31.39;37.70;99977.06;5088108;28;20075;-22
2021/07/14 08:18:53;;;;;;;15.10;13.02;;;;;;;31.68;38.34;99978.44;5087714;28;20507;-22
2021/07/14 08:21:18;;;;;;;15.05;11.63;;;;;;;31.63;37.56;99971.28;5087978;28;20028;-22
2021/07/14 08:23:45;;;;;;;14.75;11.27;;;;;;;31.62;36.53;99975.19;5088406;28;20063;-22
2021/07/14 08:26:12;;;;;;;11.27;10.13;;;;;;;31.69;36.44;99979.25;5088216;28;20058;-22
2021/07/14 08:28:38;;;;;;;15.40;11.38;;;;;;;31.77;37.19;99970.75;5087923;28;20028;-22
2021/07/14 08:31:04;;;;;;;12.02;10.82;;;;;;;32.26;35.43;99980.31;5087787;28;20032;-22
2021/07/14 08:33:29;;;;;;;12.95;10.98;;;;;;;32.16;36.01;99965.19;5087641;28;20035;-22
2021/07/14 08:35:54;;;;;;;14.93;10.10;;;;;;;31.98;36.04;99975.88;5087873;28;20031;-22
2021/07/14 08:38:20;;;;;;;15.45;10.88;;;;;;;32.23;34.76;99959.00;5087731;28;20031;-22
2021/07/14 08:40:46;;;;;;;13.70;11.60;;;;;;;31.91;36.20;99969.44;5087353;28;20020;-22
2021/07/14 08:43:11;;;;;;;17.30;10.93;;;;;;;32.00;34.81;99968.06;5070019;28;20078;-22
2021/07/14 08:45:38;;;;;;;14.75;12.02;;;;;;;32.07;37.17;99966.59;5052909;28;20028;-22
2021/07/14 08:48:05;;;;;;;16.40;11.27;;;;;;;32.71;34.65;99958.59;5087594;28;20031;-21
2021/07/14 08:50:30;;;;;;;13.30;11.18;;;;;;;32.54;37.43;99951.59;5087559;28;20118;-22
2021/07/14 08:52:56;;;;;;;11.82;9.88;;;;;;;31.95;34.13;99942.72;5068922;28;20114;-22
2021/07/14 08:55:22;;;;;;;13.38;11.02;;;;;;;32.34;34.03;99948.13;5069627;28;20028;-22
2021/07/14 08:57:48;;;;;;;12.87;10.77;;;;;;;32.93;33.34;99956.94;5070073;28;20039;-22
2021/07/14 09:00:17;;;;;;;13.23;10.70;;;;;;;32.60;33.69;99961.19;5087469;28;20036;-22
2021/07/14 09:02:42;;;;;;;11.55;10.05;;;;;;;32.83;33.54;99948.16;5087110;28;20411;-21
2021/07/14 09:05:08;;;;;;;10.82;9.65;;;;;;;32.62;31.96;99945.06;5069781;28;20554;-22
2021/07/14 09:07:35;;;;;;;10.75;9.65;;;;;;;32.74;31.20;99944.06;5087656;28;20562;-23
2021/07/14 09:10:01;;;;;;;10.60;9.50;;;;;;;32.55;31.87;99936.66;5087477;28;20036;-22
2021/07/14 09:12:46;;;;;;;11.45;10.25;;;;;;;32.75;32.12;99946.44;5069397;28;20040;-22
2021/07/14 09:15:13;;;;;;;11.63;9.60;;;;;;;33.07;30.86;99948.84;5069445;28;20093;-22
2021/07/14 09:17:48;;;;;;;10.75;9.65;;;;;;;32.72;32.60;99947.19;5087655;28;20027;-22
2021/07/14 09:20:19;;;;;;;12.73;9.73;;;;;;;33.11;31.15;99946.97;5087185;28;20126;-22
2021/07/14 09:22:45;;;;;;;12.25;10.02;;;;;;;32.60;31.63;99950.16;5087015;28;20480;-23
2021/07/14 09:25:15;;;;;;;10.85;9.63;;;;;;;33.19;31.85;99945.88;5087180;28;20038;-21
2021/07/14 09:28:02;;;;;;;11.20;9.98;;;;;;;33.79;30.01;99936.72;5087569;28;20023;-21
2021/07/14 09:30:27;;;;;;;;;;;;;;;33.93;30.93;99943.56;5070390;28;20035;-22
2021/07/14 09:33:00;;;;;;;11.80;10.63;;;;;;;34.13;30.29;99944.16;5087072;28;19912;-22
2021/07/14 09:35:28;;;;;;;11.98;10.75;;;;;;;34.01;30.34;99939.69;5087356;28;20033;-22
2021/07/14 09:37:55;;;;;;;11.88;10.45;;;;;;;34.61;29.78;99941.38;5087251;28;20035;-21
2021/07/14 09:40:20;;;;;;;14.73;11.02;;;;;;;34.64;30.24;99937.84;5086913;28;20042;-22
2021/07/14 09:42:59;;;;;;;12.38;11.00;;;;;;;34.39;32.87;99935.69;5086851;28;20071;-23
2021/07/14 09:45:53;;;;;;;11.57;10.07;;;;;;;34.35;30.97;99932.13;5069140;28;20035;-22
2021/07/14 09:48:29;;;;;;;13.20;10.93;;;;;;;34.17;32.71;99937.50;5086835;28;20028;-22
2021/07/14 09:50:58;;;;;;;12.50;10.38;;;;;;;34.31;30.44;99949.88;5086826;28;20150;-22
2021/07/14 09:53:29;;;;;;;12.45;10.35;;;;;;;34.42;29.84;99948.75;5068392;28;20485;-22
2021/07/14 09:55:59;;;;;;;11.40;10.25;;;;;;;34.48;30.08;99937.34;5087338;28;20085;-22
2021/07/14 09:58:29;;;;;;;14.45;10.10;;;;;;;34.49;32.37;99936.16;5086924;28;20063;-22
2021/07/14 10:01:03;;;;;;;12.90;11.13;;;;;;;34.20;33.01;99944.22;5086980;28;20023;-22
2021/07/14 10:03:32;;;;;;;14.73;10.80;;;;;;;34.36;30.88;99941.22;5086835;28;20604;-21
2021/07/14 10:06:09;;;;;;;14.00;10.80;;;;;;;35.10;29.07;99931.78;5087098;28;20123;-22
2021/07/14 10:08:37;;;;;;;17.25;10.68;;;;;;;35.88;27.88;99916.63;5069995;28;20038;-21
2021/07/14 10:11:09;;;;;;;11.35;10.15;;;;;;;35.14;30.19;99924.28;5068886;28;20036;-22
2021/07/14 10:13:35;;;;;;;11.43;10.30;;;;;;;36.17;29.56;99930.56;5090230;28;20031;-22
2021/07/14 10:16:04;;;;;;;12.63;10.70;;;;;;;36.61;27.49;99938.41;5072562;28;20036;-21
2021/07/14 10:18:32;;;;;;;11.02;9.90;;;;;;;36.72;26.65;99938.44;5072310;28;20024;-21
2021/07/14 10:20:58;;;;;;;13.50;10.73;;;;;;;36.29;28.37;99930.16;5090150;28;20110;-21
2021/07/14 10:23:23;;;;;;;11.25;10.00;;;;;;;36.53;27.23;99933.28;5072242;28;20111;-21
2021/07/14 10:25:49;;;;;;;10.93;9.82;;;;;;;36.28;28.55;99922.22;5072059;28;20046;-21
2021/07/14 10:28:19;;;;;;;12.07;9.93;;;;;;;36.32;27.66;99901.56;5090259;28;20035;-21
2021/07/14 10:30:46;;;;;;;10.95;9.85;;;;;;;36.22;28.71;99919.03;5089984;28;20531;-22
2021/07/14 10:33:12;;;;;;;11.30;9.68;;;;;;;35.39;28.60;99901.44;5072189;28;20025;-22
2021/07/14 10:35:41;;;;;;;11.18;9.55;;;;;;;35.85;28.01;99909.09;5083865;28;20036;-22
2021/07/14 10:38:25;;;;;;;11.55;9.65;;;;;;;35.44;27.48;99903.84;5078197;28;20476;-22
2021/07/14 10:40:52;;;;;;;10.82;9.73;;;;;;;35.55;28.59;99888.03;5046306;28;20035;-22
2021/07/14 10:43:19;;;;;;;11.18;9.95;;;;;;;35.90;27.72;99900.38;5079265;28;20085;-22
2021/07/14 10:45:48;;;;;;;;;;;;;;;36.01;27.60;99903.94;5085812;28;20032;-23
2021/07/14 10:48:15;;;;;;;10.95;9.63;;;;;;;35.59;27.55;99905.47;5078370;28;19917;-23
2021/07/14 10:50:40;;;;;;;;;;;;;;;36.31;26.55;99902.78;5077253;28;20089;-23
2021/07/14 10:53:06;;;;;;;12.30;10.50;;;;;;;36.62;26.04;99892.00;5061306;28;19920;-23
2021/07/14 10:55:31;;;;;;;12.50;9.73;;;;;;;36.95;26.01;99903.84;5060854;28;20516;-23
2021/07/14 10:57:57;;;;;;;12.15;9.68;;;;;;;35.56;28.69;99884.06;5078839;28;20035;-22
2021/07/14 11:00:22;;;;;;;11.05;9.30;;;;;;;36.01;28.29;99895.63;5080113;28;20020;-23
2021/07/14 11:02:52;;;;;;;10.43;9.40;;;;;;;35.79;28.18;99880.16;5062917;28;20066;-23
2021/07/14 11:05:44;;;;;;;10.27;9.27;;;;;;;36.23;28.98;99884.53;5089502;28;20088;-22
2021/07/14 11:08:10;;;;;;;10.73;9.50;;;;;;;36.91;28.47;99886.41;5088796;28;20039;-22
2021/07/14 11:10:37;;;;;;;12.95;9.32;;;;;;;36.56;26.61;99888.84;5071921;28;20020;-22
2021/07/14 11:13:24;;;;;;;11.25;9.32;;;;;;;36.52;26.13;99882.50;5088431;28;20067;-22
2021/07/14 11:15:50;;;;;;;11.35;9.30;;;;;;;36.76;26.50;99880.88;5071344;28;20024;-22
2021/07/14 11:18:31;;;;;;;10.88;9.68;;;;;;;37.16;26.79;99884.31;5071222;28;20031;-22
2021/07/14 11:20:57;;;;;;;12.80;9.43;;;;;;;37.45;27.19;99881.38;5089396;28;20036;-22
2021/07/14 11:23:25;;;;;;;10.88;9.18;;;;;;;36.31;26.49;99869.47;5071019;28;20848;-22
2021/07/14 11:25:55;;;;;;;10.10;9.13;;;;;;;36.12;27.96;99858.75;5089577;28;20028;-22
2021/07/14 11:28:21;;;;;;;13.10;9.43;;;;;;;36.44;27.21;99874.59;5089048;28;20028;-22